sensor_id;sensor_type;location;lat;lon;timestamp;P1;durP1;ratioP1;P2;durP2;ratioP2
16967;SDS011;64862;54.398;10.126;2023-03-17T00:09:40;4.47;;;1.40;;
16967;SDS011;64862;54.398;10.126;2023-03-17T00:19:43;6.22;;;1.40;;
16967;SDS011;64862;54.398;10.126;2023-03-17T00:29:45;5.70;;;1.50;;
16967;SDS011;64862;54.398;10.126;2023-03-17T00:39:49;4.63;;;1.38;;
16967;SDS011;64862;54.398;10.126;2023-03-17T00:49:51;6.78;;;1.48;;
16967;SDS011;64862;54.398;10.126;2023-03-17T00:59:56;4.13;;;1.33;;
16967;SDS011;64862;54.398;10.126;2023-03-17T01:09:57;6.15;;;1.52;;
16967;SDS011;64862;54.398;10.126;2023-03-17T01:20:01;5.43;;;1.40;;
16967;SDS011;64862;54.398;10.126;2023-03-17T01:30:06;3.60;;;1.40;;
16967;SDS011;64862;54.398;10.126;2023-03-17T01:40:15;4.18;;;1.60;;
16967;SDS011;64862;54.398;10.126;2023-03-17T01:50:19;5.35;;;1.60;;
16967;SDS011;64862;54.398;10.126;2023-03-17T02:00:23;7.43;;;1.70;;
16967;SDS011;64862;54.398;10.126;2023-03-17T02:10:27;8.13;;;1.83;;
16967;SDS011;64862;54.398;10.126;2023-03-17T02:31:16;4.60;;;1.70;;
16967;SDS011;64862;54.398;10.126;2023-03-17T02:41:18;4.80;;;2.00;;
16967;SDS011;64862;54.398;10.126;2023-03-17T02:51:22;4.85;;;1.73;;
16967;SDS011;64862;54.398;10.126;2023-03-17T03:01:24;5.65;;;2.08;;
16967;SDS011;64862;54.398;10.126;2023-03-17T03:11:28;7.68;;;2.33;;
16967;SDS011;64862;54.398;10.126;2023-03-17T03:21:30;6.10;;;2.22;;
16967;SDS011;64862;54.398;10.126;2023-03-17T03:31:33;5.25;;;1.90;;
16967;SDS011;64862;54.398;10.126;2023-03-17T03:41:35;7.40;;;2.10;;
16967;SDS011;64862;54.398;10.126;2023-03-17T03:51:39;6.07;;;2.40;;
16967;SDS011;64862;54.398;10.126;2023-03-17T04:01:41;4.95;;;2.42;;
16967;SDS011;64862;54.398;10.126;2023-03-17T04:11:44;6.75;;;2.35;;
16967;SDS011;64862;54.398;10.126;2023-03-17T04:21:46;6.22;;;2.20;;
16967;SDS011;64862;54.398;10.126;2023-03-17T04:31:50;9.10;;;2.67;;
16967;SDS011;64862;54.398;10.126;2023-03-17T04:41:52;5.05;;;2.47;;
16967;SDS011;64862;54.398;10.126;2023-03-17T04:51:55;5.40;;;2.30;;
16967;SDS011;64862;54.398;10.126;2023-03-17T05:01:57;7.97;;;2.78;;
16967;SDS011;64862;54.398;10.126;2023-03-17T05:12:00;6.22;;;3.10;;
16967;SDS011;64862;54.398;10.126;2023-03-17T05:22:02;6.85;;;2.75;;
16967;SDS011;64862;54.398;10.126;2023-03-17T05:32:06;5.60;;;2.58;;
16967;SDS011;64862;54.398;10.126;2023-03-17T05:42:08;8.18;;;3.20;;
16967;SDS011;64862;54.398;10.126;2023-03-17T05:52:11;7.35;;;2.80;;
16967;SDS011;64862;54.398;10.126;2023-03-17T06:02:13;6.18;;;2.88;;
16967;SDS011;64862;54.398;10.126;2023-03-17T06:12:17;6.38;;;2.55;;
16967;SDS011;64862;54.398;10.126;2023-03-17T06:22:19;7.65;;;3.50;;
16967;SDS011;64862;54.398;10.126;2023-03-17T06:32:22;8.05;;;2.95;;
16967;SDS011;64862;54.398;10.126;2023-03-17T06:42:24;6.95;;;3.22;;
16967;SDS011;64862;54.398;10.126;2023-03-17T06:52:28;7.13;;;3.47;;
16967;SDS011;64862;54.398;10.126;2023-03-17T07:02:30;8.07;;;3.40;;
16967;SDS011;64862;54.398;10.126;2023-03-17T07:12:34;6.50;;;3.25;;
16967;SDS011;64862;54.398;10.126;2023-03-17T07:22:36;5.93;;;3.47;;
16967;SDS011;64862;54.398;10.126;2023-03-17T07:32:39;8.95;;;3.38;;
16967;SDS011;64862;54.398;10.126;2023-03-17T07:42:42;8.75;;;2.92;;
16967;SDS011;64862;54.398;10.126;2023-03-17T07:52:48;6.80;;;3.55;;
16967;SDS011;64862;54.398;10.126;2023-03-17T08:02:50;10.32;;;3.03;;
16967;SDS011;64862;54.398;10.126;2023-03-17T08:12:53;6.72;;;2.95;;
16967;SDS011;64862;54.398;10.126;2023-03-17T08:22:55;7.55;;;3.40;;
16967;SDS011;64862;54.398;10.126;2023-03-17T08:32:58;6.32;;;3.13;;
16967;SDS011;64862;54.398;10.126;2023-03-17T08:43:01;6.10;;;3.25;;
16967;SDS011;64862;54.398;10.126;2023-03-17T08:53:04;8.25;;;3.60;;
16967;SDS011;64862;54.398;10.126;2023-03-17T09:03:07;7.63;;;3.30;;
16967;SDS011;64862;54.398;10.126;2023-03-17T09:13:11;5.40;;;3.20;;
16967;SDS011;64862;54.398;10.126;2023-03-17T09:23:13;6.95;;;3.15;;
16967;SDS011;64862;54.398;10.126;2023-03-17T09:33:17;11.10;;;3.22;;
16967;SDS011;64862;54.398;10.126;2023-03-17T09:43:22;6.35;;;3.05;;
16967;SDS011;64862;54.398;10.126;2023-03-17T09:53:34;7.65;;;3.15;;
16967;SDS011;64862;54.398;10.126;2023-03-17T10:03:49;6.65;;;3.28;;
16967;SDS011;64862;54.398;10.126;2023-03-17T10:13:53;6.13;;;3.60;;
16967;SDS011;64862;54.398;10.126;2023-03-17T10:24:01;6.72;;;3.83;;
16967;SDS011;64862;54.398;10.126;2023-03-17T10:34:10;6.10;;;3.42;;
16967;SDS011;64862;54.398;10.126;2023-03-17T10:44:20;6.88;;;3.42;;
16967;SDS011;64862;54.398;10.126;2023-03-17T10:54:25;7.43;;;3.47;;
16967;SDS011;64862;54.398;10.126;2023-03-17T11:04:29;8.82;;;3.60;;
16967;SDS011;64862;54.398;10.126;2023-03-17T11:14:36;9.10;;;3.25;;
16967;SDS011;64862;54.398;10.126;2023-03-17T11:24:39;7.15;;;3.78;;
16967;SDS011;64862;54.398;10.126;2023-03-17T11:34:59;7.68;;;3.83;;
16967;SDS011;64862;54.398;10.126;2023-03-17T11:45:12;8.88;;;4.43;;
16967;SDS011;64862;54.398;10.126;2023-03-17T11:55:22;9.05;;;4.75;;
16967;SDS011;64862;54.398;10.126;2023-03-17T12:05:27;12.52;;;4.28;;
16967;SDS011;64862;54.398;10.126;2023-03-17T12:15:33;6.20;;;3.85;;
16967;SDS011;64862;54.398;10.126;2023-03-17T12:25:39;7.53;;;3.83;;
16967;SDS011;64862;54.398;10.126;2023-03-17T12:35:52;6.82;;;4.20;;
16967;SDS011;64862;54.398;10.126;2023-03-17T12:46:09;8.88;;;4.70;;
16967;SDS011;64862;54.398;10.126;2023-03-17T12:56:30;9.40;;;4.22;;
16967;SDS011;64862;54.398;10.126;2023-03-17T13:06:37;7.28;;;3.80;;
16967;SDS011;64862;54.398;10.126;2023-03-17T13:16:45;9.10;;;3.97;;
16967;SDS011;64862;54.398;10.126;2023-03-17T13:26:54;8.43;;;3.80;;
16967;SDS011;64862;54.398;10.126;2023-03-17T13:37:02;7.82;;;3.70;;
16967;SDS011;64862;54.398;10.126;2023-03-17T13:47:26;7.88;;;3.90;;
16967;SDS011;64862;54.398;10.126;2023-03-17T13:57:35;7.85;;;3.78;;
16967;SDS011;64862;54.398;10.126;2023-03-17T14:07:41;8.30;;;4.07;;
16967;SDS011;64862;54.398;10.126;2023-03-17T14:17:50;9.50;;;3.75;;
16967;SDS011;64862;54.398;10.126;2023-03-17T14:38:00;10.23;;;3.88;;
16967;SDS011;64862;54.398;10.126;2023-03-17T14:48:03;5.63;;;3.10;;
16967;SDS011;64862;54.398;10.126;2023-03-17T14:58:07;8.32;;;3.70;;
16967;SDS011;64862;54.398;10.126;2023-03-17T15:18:56;9.07;;;3.17;;
16967;SDS011;64862;54.398;10.126;2023-03-17T15:29:04;7.75;;;3.10;;
16967;SDS011;64862;54.398;10.126;2023-03-17T15:39:08;8.77;;;3.67;;
16967;SDS011;64862;54.398;10.126;2023-03-17T15:49:11;7.75;;;3.60;;
16967;SDS011;64862;54.398;10.126;2023-03-17T15:59:14;9.00;;;3.92;;
16967;SDS011;64862;54.398;10.126;2023-03-17T16:09:16;8.15;;;3.80;;
16967;SDS011;64862;54.398;10.126;2023-03-17T16:19:19;7.13;;;3.70;;
16967;SDS011;64862;54.398;10.126;2023-03-17T16:29:23;8.05;;;3.67;;
16967;SDS011;64862;54.398;10.126;2023-03-17T16:39:27;8.00;;;4.13;;
16967;SDS011;64862;54.398;10.126;2023-03-17T16:49:31;8.73;;;3.63;;
16967;SDS011;64862;54.398;10.126;2023-03-17T16:59:35;5.72;;;3.22;;
16967;SDS011;64862;54.398;10.126;2023-03-17T17:09:37;6.63;;;3.08;;
16967;SDS011;64862;54.398;10.126;2023-03-17T17:19:40;5.57;;;3.08;;
16967;SDS011;64862;54.398;10.126;2023-03-17T17:29:42;8.32;;;3.47;;
16967;SDS011;64862;54.398;10.126;2023-03-17T17:39:45;6.13;;;3.20;;
16967;SDS011;64862;54.398;10.126;2023-03-17T17:49:47;5.72;;;2.50;;
16967;SDS011;64862;54.398;10.126;2023-03-17T17:59:51;5.68;;;2.58;;
16967;SDS011;64862;54.398;10.126;2023-03-17T18:09:53;3.72;;;1.98;;
16967;SDS011;64862;54.398;10.126;2023-03-17T18:19:57;4.20;;;1.98;;
16967;SDS011;64862;54.398;10.126;2023-03-17T18:29:59;3.83;;;1.80;;
16967;SDS011;64862;54.398;10.126;2023-03-17T18:40:02;5.10;;;1.77;;
16967;SDS011;64862;54.398;10.126;2023-03-17T18:50:06;5.68;;;1.80;;
16967;SDS011;64862;54.398;10.126;2023-03-17T19:00:12;6.82;;;2.45;;
16967;SDS011;64862;54.398;10.126;2023-03-17T19:10:16;8.95;;;4.10;;
16967;SDS011;64862;54.398;10.126;2023-03-17T19:20:20;9.77;;;4.57;;
16967;SDS011;64862;54.398;10.126;2023-03-17T19:30:22;15.15;;;6.78;;
16967;SDS011;64862;54.398;10.126;2023-03-17T19:40:25;16.25;;;7.75;;
16967;SDS011;64862;54.398;10.126;2023-03-17T19:50:28;13.68;;;6.55;;
16967;SDS011;64862;54.398;10.126;2023-03-17T20:00:33;11.80;;;5.88;;
16967;SDS011;64862;54.398;10.126;2023-03-17T20:10:35;11.13;;;6.05;;
16967;SDS011;64862;54.398;10.126;2023-03-17T20:20:39;13.45;;;7.80;;
16967;SDS011;64862;54.398;10.126;2023-03-17T20:30:46;13.23;;;7.43;;
16967;SDS011;64862;54.398;10.126;2023-03-17T20:40:50;15.25;;;7.15;;
16967;SDS011;64862;54.398;10.126;2023-03-17T20:50:52;13.80;;;7.07;;
16967;SDS011;64862;54.398;10.126;2023-03-17T21:00:56;17.05;;;7.75;;
16967;SDS011;64862;54.398;10.126;2023-03-17T21:11:00;12.73;;;7.22;;
16967;SDS011;64862;54.398;10.126;2023-03-17T21:21:04;18.48;;;8.25;;
16967;SDS011;64862;54.398;10.126;2023-03-17T21:31:06;15.73;;;7.10;;
16967;SDS011;64862;54.398;10.126;2023-03-17T21:41:20;14.88;;;7.13;;
16967;SDS011;64862;54.398;10.126;2023-03-17T21:51:28;13.20;;;7.20;;
16967;SDS011;64862;54.398;10.126;2023-03-17T22:01:33;18.02;;;8.60;;
16967;SDS011;64862;54.398;10.126;2023-03-17T22:11:35;16.15;;;6.53;;
16967;SDS011;64862;54.398;10.126;2023-03-17T22:21:38;12.18;;;5.40;;
16967;SDS011;64862;54.398;10.126;2023-03-17T22:31:41;9.95;;;4.70;;
16967;SDS011;64862;54.398;10.126;2023-03-17T22:41:44;9.40;;;4.75;;
16967;SDS011;64862;54.398;10.126;2023-03-17T22:51:46;9.63;;;4.70;;
16967;SDS011;64862;54.398;10.126;2023-03-17T23:01:50;8.98;;;4.70;;
16967;SDS011;64862;54.398;10.126;2023-03-17T23:11:52;8.85;;;4.60;;
16967;SDS011;64862;54.398;10.126;2023-03-17T23:21:55;7.75;;;4.50;;
16967;SDS011;64862;54.398;10.126;2023-03-17T23:31:58;8.55;;;4.75;;
16967;SDS011;64862;54.398;10.126;2023-03-17T23:42:01;8.15;;;4.93;;
16967;SDS011;64862;54.398;10.126;2023-03-17T23:52:04;11.02;;;4.78;;
